aviador You're here:

KRID Decoded Metar

in
Report Time2017-06-29 06:55:00
UTC Time2017-06-29 07:07:03
Flight Rules vfr VFR
Wind190° at 08 kt
W.Decomp.*RWY 15: 6.1 kt HW 5.1 kt RCW
RWY 24: 5.1 kt HW 6.1 kt LCW
Visibility9999 m
Phenomena:N/A
Clouds:N/A
Expected CloudBase > 1,200 ft AGL from Temp-Dew spread
CeilingNone
Temp16°C
Dew Point13°C (83% RH)
AAT14.1°C
QNH1016 hPa
Raw Report
METAR KRID 290655Z AUTO 19008KT 10SM CLR 16/13 A3001 RMK AO2=

Extra information for KRID:More info

Social comments